Terminal Aerodrome Forecast
Issued by NWS

Home | Current Version | Previous Version | Text Only | Print | Product List | Glossary On
Versions: 1 2 3 4 5 6 7 8 9 10 11 12 13
000
FTUS45 KABQ 250536
TAFROW
TAF
KROW 250536Z 2506/2606 01024G34KT P6SM BKN120
     FM250900 01022KT P6SM OVC025
     FM251600 02010KT P6SM BKN035
     FM251800 05007KT P6SM BKN050
     FM252100 09007KT P6SM SCT100=

USA.gov is the U.S. government's official web portal to all federal, state and local government web resources and services.